sensor_id;sensor_type;location;lat;lon;timestamp;P1;durP1;ratioP1;P2;durP2;ratioP2
64351;SDS011;50680;52.626;-8.668;2022-07-05T00:00:23;5.18;;;1.23;;
64351;SDS011;50680;52.626;-8.668;2022-07-05T00:02:50;2.78;;;1.15;;
64351;SDS011;50680;52.626;-8.668;2022-07-05T00:05:17;3.13;;;0.90;;
64351;SDS011;50680;52.626;-8.668;2022-07-05T00:07:44;6.57;;;1.40;;
64351;SDS011;50680;52.626;-8.668;2022-07-05T00:10:11;4.32;;;0.90;;
64351;SDS011;50680;52.626;-8.668;2022-07-05T00:12:38;5.72;;;1.40;;
64351;SDS011;50680;52.626;-8.668;2022-07-05T00:15:05;1.55;;;0.75;;
64351;SDS011;50680;52.626;-8.668;2022-07-05T00:17:32;3.42;;;1.10;;
64351;SDS011;50680;52.626;-8.668;2022-07-05T00:19:59;2.13;;;0.90;;
64351;SDS011;50680;52.626;-8.668;2022-07-05T00:22:27;4.22;;;0.90;;
64351;SDS011;50680;52.626;-8.668;2022-07-05T00:24:55;3.80;;;0.90;;
64351;SDS011;50680;52.626;-8.668;2022-07-05T00:27:22;1.50;;;0.90;;
64351;SDS011;50680;52.626;-8.668;2022-07-05T00:29:49;6.00;;;1.10;;
64351;SDS011;50680;52.626;-8.668;2022-07-05T00:32:16;3.92;;;1.00;;
64351;SDS011;50680;52.626;-8.668;2022-07-05T00:34:44;6.05;;;0.95;;
64351;SDS011;50680;52.626;-8.668;2022-07-05T00:37:11;3.60;;;1.13;;
64351;SDS011;50680;52.626;-8.668;2022-07-05T00:39:38;2.97;;;0.90;;
64351;SDS011;50680;52.626;-8.668;2022-07-05T00:42:06;2.35;;;0.90;;
64351;SDS011;50680;52.626;-8.668;2022-07-05T00:44:34;4.22;;;0.90;;
64351;SDS011;50680;52.626;-8.668;2022-07-05T00:47:06;2.35;;;0.70;;
64351;SDS011;50680;52.626;-8.668;2022-07-05T00:49:35;4.93;;;0.98;;
64351;SDS011;50680;52.626;-8.668;2022-07-05T00:52:03;4.00;;;0.73;;
64351;SDS011;50680;52.626;-8.668;2022-07-05T00:54:47;1.75;;;0.88;;
64351;SDS011;50680;52.626;-8.668;2022-07-05T00:57:15;1.90;;;0.65;;
64351;SDS011;50680;52.626;-8.668;2022-07-05T00:59:42;2.45;;;0.70;;
64351;SDS011;50680;52.626;-8.668;2022-07-05T01:02:09;2.60;;;0.65;;
64351;SDS011;50680;52.626;-8.668;2022-07-05T01:04:43;1.90;;;1.00;;
64351;SDS011;50680;52.626;-8.668;2022-07-05T01:07:11;4.05;;;0.70;;
64351;SDS011;50680;52.626;-8.668;2022-07-05T01:09:40;3.30;;;0.60;;
64351;SDS011;50680;52.626;-8.668;2022-07-05T01:12:08;1.80;;;0.70;;
64351;SDS011;50680;52.626;-8.668;2022-07-05T01:14:35;5.35;;;0.90;;
64351;SDS011;50680;52.626;-8.668;2022-07-05T01:17:02;1.90;;;0.75;;
64351;SDS011;50680;52.626;-8.668;2022-07-05T01:19:30;2.67;;;0.90;;
64351;SDS011;50680;52.626;-8.668;2022-07-05T01:21:57;3.00;;;0.88;;
64351;SDS011;50680;52.626;-8.668;2022-07-05T01:24:30;2.65;;;0.88;;
64351;SDS011;50680;52.626;-8.668;2022-07-05T01:26:57;1.60;;;0.70;;
64351;SDS011;50680;52.626;-8.668;2022-07-05T01:29:24;3.22;;;0.80;;
64351;SDS011;50680;52.626;-8.668;2022-07-05T01:31:51;3.15;;;0.80;;
64351;SDS011;50680;52.626;-8.668;2022-07-05T01:34:19;3.70;;;0.90;;
64351;SDS011;50680;52.626;-8.668;2022-07-05T01:36:46;5.80;;;0.95;;
64351;SDS011;50680;52.626;-8.668;2022-07-05T01:39:13;3.38;;;1.20;;
64351;SDS011;50680;52.626;-8.668;2022-07-05T01:41:41;8.15;;;1.15;;
64351;SDS011;50680;52.626;-8.668;2022-07-05T01:44:08;7.30;;;1.30;;
64351;SDS011;50680;52.626;-8.668;2022-07-05T01:46:35;5.75;;;1.00;;
64351;SDS011;50680;52.626;-8.668;2022-07-05T01:49:06;5.68;;;1.50;;
64351;SDS011;50680;52.626;-8.668;2022-07-05T01:51:48;15.15;;;2.17;;
64351;SDS011;50680;52.626;-8.668;2022-07-05T01:54:18;6.70;;;1.73;;
64351;SDS011;50680;52.626;-8.668;2022-07-05T01:56:45;6.40;;;1.65;;
64351;SDS011;50680;52.626;-8.668;2022-07-05T01:59:12;9.55;;;1.80;;
64351;SDS011;50680;52.626;-8.668;2022-07-05T02:01:40;8.20;;;1.77;;
64351;SDS011;50680;52.626;-8.668;2022-07-05T02:04:08;12.40;;;2.08;;
64351;SDS011;50680;52.626;-8.668;2022-07-05T02:06:36;16.08;;;2.15;;
64351;SDS011;50680;52.626;-8.668;2022-07-05T02:09:04;14.60;;;2.30;;
64351;SDS011;50680;52.626;-8.668;2022-07-05T02:11:33;13.07;;;3.13;;
64351;SDS011;50680;52.626;-8.668;2022-07-05T02:14:00;20.23;;;2.90;;
64351;SDS011;50680;52.626;-8.668;2022-07-05T02:16:27;13.40;;;2.70;;
64351;SDS011;50680;52.626;-8.668;2022-07-05T02:18:55;15.43;;;3.08;;
64351;SDS011;50680;52.626;-8.668;2022-07-05T02:21:22;13.20;;;2.75;;
64351;SDS011;50680;52.626;-8.668;2022-07-05T02:23:49;18.92;;;3.65;;
64351;SDS011;50680;52.626;-8.668;2022-07-05T02:26:17;19.90;;;3.47;;
64351;SDS011;50680;52.626;-8.668;2022-07-05T02:28:44;19.23;;;3.63;;
64351;SDS011;50680;52.626;-8.668;2022-07-05T02:31:12;22.55;;;3.55;;
64351;SDS011;50680;52.626;-8.668;2022-07-05T02:33:38;19.30;;;3.40;;
64351;SDS011;50680;52.626;-8.668;2022-07-05T02:36:09;17.88;;;3.60;;
64351;SDS011;50680;52.626;-8.668;2022-07-05T02:38:38;21.17;;;3.10;;
64351;SDS011;50680;52.626;-8.668;2022-07-05T02:41:06;21.17;;;3.60;;
64351;SDS011;50680;52.626;-8.668;2022-07-05T02:43:35;22.33;;;3.70;;
64351;SDS011;50680;52.626;-8.668;2022-07-05T02:46:03;16.50;;;3.25;;
64351;SDS011;50680;52.626;-8.668;2022-07-05T02:48:31;20.73;;;3.63;;
64351;SDS011;50680;52.626;-8.668;2022-07-05T02:50:58;24.85;;;4.03;;
64351;SDS011;50680;52.626;-8.668;2022-07-05T02:53:26;27.52;;;3.90;;
64351;SDS011;50680;52.626;-8.668;2022-07-05T02:55:53;15.88;;;3.35;;
64351;SDS011;50680;52.626;-8.668;2022-07-05T02:58:20;18.90;;;3.70;;
64351;SDS011;50680;52.626;-8.668;2022-07-05T03:00:48;19.15;;;4.30;;
64351;SDS011;50680;52.626;-8.668;2022-07-05T03:03:16;18.50;;;3.80;;
64351;SDS011;50680;52.626;-8.668;2022-07-05T03:05:43;21.90;;;3.60;;
64351;SDS011;50680;52.626;-8.668;2022-07-05T03:08:11;14.07;;;3.40;;
64351;SDS011;50680;52.626;-8.668;2022-07-05T03:10:38;21.85;;;3.60;;
64351;SDS011;50680;52.626;-8.668;2022-07-05T03:13:06;17.63;;;4.00;;
64351;SDS011;50680;52.626;-8.668;2022-07-05T03:15:33;22.45;;;4.22;;
64351;SDS011;50680;52.626;-8.668;2022-07-05T03:18:00;19.35;;;4.72;;
64351;SDS011;50680;52.626;-8.668;2022-07-05T03:20:27;24.17;;;4.95;;
64351;SDS011;50680;52.626;-8.668;2022-07-05T03:22:54;25.75;;;5.15;;
64351;SDS011;50680;52.626;-8.668;2022-07-05T03:25:20;21.70;;;4.55;;
64351;SDS011;50680;52.626;-8.668;2022-07-05T03:27:47;31.60;;;5.13;;
64351;SDS011;50680;52.626;-8.668;2022-07-05T03:30:14;19.90;;;4.60;;
64351;SDS011;50680;52.626;-8.668;2022-07-05T03:32:41;20.40;;;4.25;;
64351;SDS011;50680;52.626;-8.668;2022-07-05T03:35:08;22.00;;;4.90;;
64351;SDS011;50680;52.626;-8.668;2022-07-05T03:37:36;20.55;;;4.40;;
64351;SDS011;50680;52.626;-8.668;2022-07-05T03:40:03;20.70;;;4.53;;
64351;SDS011;50680;52.626;-8.668;2022-07-05T03:42:31;18.65;;;4.13;;
64351;SDS011;50680;52.626;-8.668;2022-07-05T03:44:58;22.25;;;4.18;;
64351;SDS011;50680;52.626;-8.668;2022-07-05T03:47:25;27.65;;;4.90;;
64351;SDS011;50680;52.626;-8.668;2022-07-05T03:49:53;28.38;;;4.30;;
64351;SDS011;50680;52.626;-8.668;2022-07-05T03:52:20;14.68;;;4.00;;
64351;SDS011;50680;52.626;-8.668;2022-07-05T03:54:52;24.42;;;3.97;;
64351;SDS011;50680;52.626;-8.668;2022-07-05T03:57:19;15.80;;;3.75;;
64351;SDS011;50680;52.626;-8.668;2022-07-05T03:59:46;12.50;;;3.60;;
64351;SDS011;50680;52.626;-8.668;2022-07-05T04:02:14;19.50;;;3.30;;
64351;SDS011;50680;52.626;-8.668;2022-07-05T04:04:41;19.40;;;3.65;;
64351;SDS011;50680;52.626;-8.668;2022-07-05T04:07:08;23.15;;;3.67;;
64351;SDS011;50680;52.626;-8.668;2022-07-05T04:09:35;20.42;;;3.42;;
64351;SDS011;50680;52.626;-8.668;2022-07-05T04:12:02;23.67;;;3.88;;
64351;SDS011;50680;52.626;-8.668;2022-07-05T04:14:29;18.13;;;3.53;;
64351;SDS011;50680;52.626;-8.668;2022-07-05T04:16:56;15.55;;;3.40;;
64351;SDS011;50680;52.626;-8.668;2022-07-05T04:19:23;18.58;;;3.58;;
64351;SDS011;50680;52.626;-8.668;2022-07-05T04:21:50;22.27;;;4.05;;
64351;SDS011;50680;52.626;-8.668;2022-07-05T04:24:17;21.42;;;3.58;;
64351;SDS011;50680;52.626;-8.668;2022-07-05T04:26:44;21.15;;;3.90;;
64351;SDS011;50680;52.626;-8.668;2022-07-05T04:29:11;14.68;;;3.17;;
64351;SDS011;50680;52.626;-8.668;2022-07-05T04:31:38;22.08;;;3.30;;
64351;SDS011;50680;52.626;-8.668;2022-07-05T04:34:05;28.88;;;3.53;;
64351;SDS011;50680;52.626;-8.668;2022-07-05T04:36:32;20.45;;;4.00;;
64351;SDS011;50680;52.626;-8.668;2022-07-05T04:38:59;19.27;;;4.00;;
64351;SDS011;50680;52.626;-8.668;2022-07-05T04:41:26;23.60;;;4.25;;
64351;SDS011;50680;52.626;-8.668;2022-07-05T04:43:53;14.70;;;3.85;;
64351;SDS011;50680;52.626;-8.668;2022-07-05T04:46:20;22.27;;;3.97;;
64351;SDS011;50680;52.626;-8.668;2022-07-05T04:48:47;19.98;;;4.20;;
64351;SDS011;50680;52.626;-8.668;2022-07-05T04:51:14;23.83;;;4.35;;
64351;SDS011;50680;52.626;-8.668;2022-07-05T04:53:42;12.18;;;3.40;;
64351;SDS011;50680;52.626;-8.668;2022-07-05T04:56:09;14.35;;;3.60;;
64351;SDS011;50680;52.626;-8.668;2022-07-05T04:58:36;13.48;;;3.30;;
64351;SDS011;50680;52.626;-8.668;2022-07-05T05:01:03;11.43;;;2.50;;
64351;SDS011;50680;52.626;-8.668;2022-07-05T05:03:30;11.57;;;2.40;;
64351;SDS011;50680;52.626;-8.668;2022-07-05T05:05:57;9.70;;;2.28;;
64351;SDS011;50680;52.626;-8.668;2022-07-05T05:08:24;9.38;;;1.83;;
64351;SDS011;50680;52.626;-8.668;2022-07-05T05:10:51;6.30;;;1.58;;
64351;SDS011;50680;52.626;-8.668;2022-07-05T05:13:18;6.40;;;1.70;;
64351;SDS011;50680;52.626;-8.668;2022-07-05T05:15:45;8.15;;;1.50;;
64351;SDS011;50680;52.626;-8.668;2022-07-05T05:18:12;9.25;;;1.50;;
64351;SDS011;50680;52.626;-8.668;2022-07-05T05:20:40;8.82;;;1.38;;
64351;SDS011;50680;52.626;-8.668;2022-07-05T05:23:07;4.38;;;1.15;;
64351;SDS011;50680;52.626;-8.668;2022-07-05T05:25:34;5.20;;;1.48;;
64351;SDS011;50680;52.626;-8.668;2022-07-05T05:28:02;3.50;;;1.00;;
64351;SDS011;50680;52.626;-8.668;2022-07-05T05:30:29;6.22;;;0.90;;
64351;SDS011;50680;52.626;-8.668;2022-07-05T05:32:56;2.72;;;0.93;;
64351;SDS011;50680;52.626;-8.668;2022-07-05T05:35:23;2.83;;;0.65;;
64351;SDS011;50680;52.626;-8.668;2022-07-05T05:37:51;2.30;;;0.75;;
64351;SDS011;50680;52.626;-8.668;2022-07-05T05:40:20;6.13;;;0.80;;
64351;SDS011;50680;52.626;-8.668;2022-07-05T05:42:48;4.05;;;0.77;;
64351;SDS011;50680;52.626;-8.668;2022-07-05T05:45:15;3.10;;;0.70;;
64351;SDS011;50680;52.626;-8.668;2022-07-05T05:47:52;4.68;;;0.98;;
64351;SDS011;50680;52.626;-8.668;2022-07-05T05:50:25;2.88;;;0.60;;
64351;SDS011;50680;52.626;-8.668;2022-07-05T05:52:55;4.28;;;0.95;;
64351;SDS011;50680;52.626;-8.668;2022-07-05T05:55:23;4.28;;;0.98;;
64351;SDS011;50680;52.626;-8.668;2022-07-05T05:57:52;6.22;;;0.95;;
64351;SDS011;50680;52.626;-8.668;2022-07-05T06:00:20;2.13;;;0.70;;
64351;SDS011;50680;52.626;-8.668;2022-07-05T06:02:48;2.05;;;0.80;;
64351;SDS011;50680;52.626;-8.668;2022-07-05T06:05:17;1.77;;;0.70;;
64351;SDS011;50680;52.626;-8.668;2022-07-05T06:10:23;4.13;;;0.80;;
64351;SDS011;50680;52.626;-8.668;2022-07-05T06:15:20;4.00;;;0.73;;
64351;SDS011;50680;52.626;-8.668;2022-07-05T06:17:47;2.67;;;0.60;;
64351;SDS011;50680;52.626;-8.668;2022-07-05T06:20:15;2.38;;;0.77;;
64351;SDS011;50680;52.626;-8.668;2022-07-05T06:22:48;1.90;;;0.50;;
64351;SDS011;50680;52.626;-8.668;2022-07-05T06:25:17;1.58;;;0.70;;
64351;SDS011;50680;52.626;-8.668;2022-07-05T06:27:51;1.95;;;0.70;;
64351;SDS011;50680;52.626;-8.668;2022-07-05T06:30:18;3.38;;;0.63;;
64351;SDS011;50680;52.626;-8.668;2022-07-05T06:32:47;4.97;;;0.73;;
64351;SDS011;50680;52.626;-8.668;2022-07-05T06:35:15;2.95;;;0.63;;
64351;SDS011;50680;52.626;-8.668;2022-07-05T06:37:46;3.17;;;0.75;;
64351;SDS011;50680;52.626;-8.668;2022-07-05T06:40:17;3.95;;;0.75;;
64351;SDS011;50680;52.626;-8.668;2022-07-05T06:42:45;2.17;;;0.80;;
64351;SDS011;50680;52.626;-8.668;2022-07-05T06:45:13;3.80;;;0.70;;
64351;SDS011;50680;52.626;-8.668;2022-07-05T06:47:40;5.80;;;0.80;;
64351;SDS011;50680;52.626;-8.668;2022-07-05T06:50:07;5.15;;;1.05;;
64351;SDS011;50680;52.626;-8.668;2022-07-05T06:52:34;4.72;;;0.90;;
64351;SDS011;50680;52.626;-8.668;2022-07-05T06:55:03;7.78;;;1.40;;
64351;SDS011;50680;52.626;-8.668;2022-07-05T06:57:30;6.43;;;1.25;;
64351;SDS011;50680;52.626;-8.668;2022-07-05T06:59:58;9.75;;;1.58;;
64351;SDS011;50680;52.626;-8.668;2022-07-05T07:02:26;8.48;;;1.50;;
64351;SDS011;50680;52.626;-8.668;2022-07-05T07:04:54;10.32;;;1.67;;
64351;SDS011;50680;52.626;-8.668;2022-07-05T07:07:39;8.20;;;2.17;;
64351;SDS011;50680;52.626;-8.668;2022-07-05T07:10:24;12.13;;;1.90;;
64351;SDS011;50680;52.626;-8.668;2022-07-05T07:12:55;9.70;;;1.63;;
64351;SDS011;50680;52.626;-8.668;2022-07-05T07:15:24;7.93;;;1.52;;
64351;SDS011;50680;52.626;-8.668;2022-07-05T07:17:51;8.18;;;2.20;;
64351;SDS011;50680;52.626;-8.668;2022-07-05T07:20:18;7.85;;;1.77;;
64351;SDS011;50680;52.626;-8.668;2022-07-05T07:22:45;5.85;;;1.77;;
64351;SDS011;50680;52.626;-8.668;2022-07-05T07:25:12;10.38;;;1.90;;
64351;SDS011;50680;52.626;-8.668;2022-07-05T07:30:14;14.02;;;2.50;;
64351;SDS011;50680;52.626;-8.668;2022-07-05T07:32:42;9.65;;;2.47;;
64351;SDS011;50680;52.626;-8.668;2022-07-05T07:35:11;13.73;;;2.20;;
64351;SDS011;50680;52.626;-8.668;2022-07-05T07:37:38;12.68;;;2.50;;
64351;SDS011;50680;52.626;-8.668;2022-07-05T07:40:06;11.93;;;2.25;;
64351;SDS011;50680;52.626;-8.668;2022-07-05T07:42:34;16.65;;;2.35;;
64351;SDS011;50680;52.626;-8.668;2022-07-05T07:45:01;10.02;;;2.03;;
64351;SDS011;50680;52.626;-8.668;2022-07-05T07:47:31;8.73;;;2.50;;
64351;SDS011;50680;52.626;-8.668;2022-07-05T07:49:58;13.13;;;2.72;;
64351;SDS011;50680;52.626;-8.668;2022-07-05T07:52:25;8.65;;;2.00;;
64351;SDS011;50680;52.626;-8.668;2022-07-05T07:54:53;11.13;;;2.30;;
64351;SDS011;50680;52.626;-8.668;2022-07-05T07:57:19;17.08;;;2.15;;
64351;SDS011;50680;52.626;-8.668;2022-07-05T07:59:46;10.00;;;2.05;;
64351;SDS011;50680;52.626;-8.668;2022-07-05T08:02:13;7.70;;;2.08;;
64351;SDS011;50680;52.626;-8.668;2022-07-05T08:04:40;6.45;;;1.95;;
64351;SDS011;50680;52.626;-8.668;2022-07-05T08:07:08;7.18;;;2.00;;
64351;SDS011;50680;52.626;-8.668;2022-07-05T08:09:35;9.05;;;1.73;;
64351;SDS011;50680;52.626;-8.668;2022-07-05T08:12:02;9.73;;;1.52;;
64351;SDS011;50680;52.626;-8.668;2022-07-05T08:14:29;6.47;;;1.60;;
64351;SDS011;50680;52.626;-8.668;2022-07-05T08:16:57;4.43;;;1.17;;
64351;SDS011;50680;52.626;-8.668;2022-07-05T08:19:24;7.75;;;1.60;;
64351;SDS011;50680;52.626;-8.668;2022-07-05T08:22:10;4.80;;;1.27;;
64351;SDS011;50680;52.626;-8.668;2022-07-05T08:24:38;6.32;;;1.27;;
64351;SDS011;50680;52.626;-8.668;2022-07-05T08:27:07;4.28;;;1.35;;
64351;SDS011;50680;52.626;-8.668;2022-07-05T08:29:34;3.38;;;1.40;;
64351;SDS011;50680;52.626;-8.668;2022-07-05T08:32:02;5.28;;;1.08;;
64351;SDS011;50680;52.626;-8.668;2022-07-05T08:34:29;5.57;;;1.50;;
64351;SDS011;50680;52.626;-8.668;2022-07-05T08:36:57;7.32;;;1.50;;
64351;SDS011;50680;52.626;-8.668;2022-07-05T08:39:24;3.97;;;1.13;;
64351;SDS011;50680;52.626;-8.668;2022-07-05T08:41:51;5.82;;;0.93;;
64351;SDS011;50680;52.626;-8.668;2022-07-05T08:44:21;5.78;;;1.10;;
64351;SDS011;50680;52.626;-8.668;2022-07-05T08:49:21;7.93;;;1.30;;
64351;SDS011;50680;52.626;-8.668;2022-07-05T08:51:50;3.85;;;1.00;;
64351;SDS011;50680;52.626;-8.668;2022-07-05T08:54:17;6.00;;;1.27;;
64351;SDS011;50680;52.626;-8.668;2022-07-05T08:56:45;3.42;;;0.90;;
64351;SDS011;50680;52.626;-8.668;2022-07-05T08:59:32;4.60;;;1.10;;
64351;SDS011;50680;52.626;-8.668;2022-07-05T09:01:59;7.68;;;1.20;;
64351;SDS011;50680;52.626;-8.668;2022-07-05T09:04:31;6.30;;;1.60;;
64351;SDS011;50680;52.626;-8.668;2022-07-05T09:07:04;5.80;;;1.50;;
64351;SDS011;50680;52.626;-8.668;2022-07-05T09:09:37;4.07;;;1.30;;
64351;SDS011;50680;52.626;-8.668;2022-07-05T09:12:11;4.25;;;1.52;;
64351;SDS011;50680;52.626;-8.668;2022-07-05T09:14:50;9.63;;;1.50;;
64351;SDS011;50680;52.626;-8.668;2022-07-05T09:17:17;8.85;;;1.80;;
64351;SDS011;50680;52.626;-8.668;2022-07-05T09:19:50;8.95;;;1.50;;
64351;SDS011;50680;52.626;-8.668;2022-07-05T09:25:21;8.88;;;1.75;;
64351;SDS011;50680;52.626;-8.668;2022-07-05T09:27:51;8.70;;;1.63;;
64351;SDS011;50680;52.626;-8.668;2022-07-05T09:30:23;8.95;;;1.58;;
64351;SDS011;50680;52.626;-8.668;2022-07-05T09:33:15;7.80;;;1.70;;
64351;SDS011;50680;52.626;-8.668;2022-07-05T09:35:43;8.30;;;1.35;;
64351;SDS011;50680;52.626;-8.668;2022-07-05T09:38:26;8.82;;;1.60;;
64351;SDS011;50680;52.626;-8.668;2022-07-05T09:40:54;5.07;;;1.40;;
64351;SDS011;50680;52.626;-8.668;2022-07-05T09:43:25;6.18;;;1.52;;
64351;SDS011;50680;52.626;-8.668;2022-07-05T09:48:20;5.97;;;1.63;;
64351;SDS011;50680;52.626;-8.668;2022-07-05T09:51:07;7.03;;;1.63;;
64351;SDS011;50680;52.626;-8.668;2022-07-05T09:53:59;7.47;;;1.85;;
64351;SDS011;50680;52.626;-8.668;2022-07-05T09:56:42;9.35;;;1.80;;
64351;SDS011;50680;52.626;-8.668;2022-07-05T09:59:11;12.15;;;1.88;;
64351;SDS011;50680;52.626;-8.668;2022-07-05T10:01:39;8.60;;;1.85;;
64351;SDS011;50680;52.626;-8.668;2022-07-05T10:04:07;4.75;;;1.20;;
64351;SDS011;50680;52.626;-8.668;2022-07-05T10:06:34;5.40;;;1.38;;
64351;SDS011;50680;52.626;-8.668;2022-07-05T10:09:01;8.27;;;1.45;;
64351;SDS011;50680;52.626;-8.668;2022-07-05T10:11:28;7.10;;;1.30;;
64351;SDS011;50680;52.626;-8.668;2022-07-05T10:13:55;4.50;;;1.10;;
64351;SDS011;50680;52.626;-8.668;2022-07-05T10:16:24;5.22;;;1.10;;
64351;SDS011;50680;52.626;-8.668;2022-07-05T10:18:52;4.70;;;1.35;;
64351;SDS011;50680;52.626;-8.668;2022-07-05T10:21:23;6.50;;;1.33;;
64351;SDS011;50680;52.626;-8.668;2022-07-05T10:23:51;3.03;;;0.90;;
64351;SDS011;50680;52.626;-8.668;2022-07-05T10:26:23;7.80;;;1.10;;
64351;SDS011;50680;52.626;-8.668;2022-07-05T10:28:51;5.45;;;1.00;;
64351;SDS011;50680;52.626;-8.668;2022-07-05T10:31:28;5.68;;;1.00;;
64351;SDS011;50680;52.626;-8.668;2022-07-05T10:33:56;3.50;;;1.02;;
64351;SDS011;50680;52.626;-8.668;2022-07-05T10:36:53;6.50;;;1.10;;
64351;SDS011;50680;52.626;-8.668;2022-07-05T10:39:20;5.70;;;0.77;;
64351;SDS011;50680;52.626;-8.668;2022-07-05T10:41:52;3.90;;;1.02;;
64351;SDS011;50680;52.626;-8.668;2022-07-05T10:44:29;2.95;;;0.93;;
64351;SDS011;50680;52.626;-8.668;2022-07-05T10:47:08;4.53;;;0.90;;
64351;SDS011;50680;52.626;-8.668;2022-07-05T10:49:39;4.65;;;1.30;;
64351;SDS011;50680;52.626;-8.668;2022-07-05T10:52:22;5.15;;;1.15;;
64351;SDS011;50680;52.626;-8.668;2022-07-05T11:00:45;5.47;;;0.95;;
64351;SDS011;50680;52.626;-8.668;2022-07-05T11:03:34;4.33;;;0.90;;
64351;SDS011;50680;52.626;-8.668;2022-07-05T11:06:03;4.00;;;0.90;;
64351;SDS011;50680;52.626;-8.668;2022-07-05T11:09:17;7.28;;;0.98;;
64351;SDS011;50680;52.626;-8.668;2022-07-05T11:11:32;4.93;;;0.82;;
64351;SDS011;50680;52.626;-8.668;2022-07-05T11:14:34;4.82;;;0.63;;
64351;SDS011;50680;52.626;-8.668;2022-07-05T11:17:19;4.28;;;0.60;;
64351;SDS011;50680;52.626;-8.668;2022-07-05T11:20:13;2.72;;;0.50;;
64351;SDS011;50680;52.626;-8.668;2022-07-05T11:25:30;2.38;;;0.50;;
64351;SDS011;50680;52.626;-8.668;2022-07-05T11:27:59;0.50;;;0.30;;
64351;SDS011;50680;52.626;-8.668;2022-07-05T11:30:27;1.02;;;0.40;;
64351;SDS011;50680;52.626;-8.668;2022-07-05T11:32:54;2.10;;;0.60;;
64351;SDS011;50680;52.626;-8.668;2022-07-05T11:35:21;0.45;;;0.20;;
64351;SDS011;50680;52.626;-8.668;2022-07-05T11:38:02;9.55;;;0.63;;
64351;SDS011;50680;52.626;-8.668;2022-07-05T11:43:28;2.20;;;0.30;;
64351;SDS011;50680;52.626;-8.668;2022-07-05T11:48:26;1.38;;;0.40;;
64351;SDS011;50680;52.626;-8.668;2022-07-05T11:50:54;1.95;;;0.40;;
64351;SDS011;50680;52.626;-8.668;2022-07-05T11:53:26;1.65;;;0.30;;
64351;SDS011;50680;52.626;-8.668;2022-07-05T11:56:14;2.83;;;0.60;;
64351;SDS011;50680;52.626;-8.668;2022-07-05T11:58:41;1.50;;;0.57;;
64351;SDS011;50680;52.626;-8.668;2022-07-05T12:01:08;0.95;;;0.60;;
64351;SDS011;50680;52.626;-8.668;2022-07-05T12:03:35;10.70;;;0.80;;
64351;SDS011;50680;52.626;-8.668;2022-07-05T12:06:12;3.45;;;0.65;;
64351;SDS011;50680;52.626;-8.668;2022-07-05T12:08:40;3.55;;;0.90;;
64351;SDS011;50680;52.626;-8.668;2022-07-05T12:11:10;2.97;;;0.70;;
64351;SDS011;50680;52.626;-8.668;2022-07-05T12:13:56;2.83;;;1.13;;
64351;SDS011;50680;52.626;-8.668;2022-07-05T12:16:23;2.95;;;0.88;;
64351;SDS011;50680;52.626;-8.668;2022-07-05T12:18:53;3.45;;;0.80;;
64351;SDS011;50680;52.626;-8.668;2022-07-05T12:21:26;5.60;;;0.90;;
64351;SDS011;50680;52.626;-8.668;2022-07-05T12:23:54;6.40;;;1.10;;
64351;SDS011;50680;52.626;-8.668;2022-07-05T12:26:21;3.08;;;1.05;;
64351;SDS011;50680;52.626;-8.668;2022-07-05T12:28:49;5.32;;;1.70;;
64351;SDS011;50680;52.626;-8.668;2022-07-05T12:31:17;4.35;;;1.45;;
64351;SDS011;50680;52.626;-8.668;2022-07-05T12:33:46;11.73;;;1.20;;
64351;SDS011;50680;52.626;-8.668;2022-07-05T12:36:14;3.70;;;1.20;;
64351;SDS011;50680;52.626;-8.668;2022-07-05T12:38:42;5.45;;;1.20;;
64351;SDS011;50680;52.626;-8.668;2022-07-05T12:41:10;4.07;;;1.30;;
64351;SDS011;50680;52.626;-8.668;2022-07-05T12:43:50;4.15;;;1.10;;
64351;SDS011;50680;52.626;-8.668;2022-07-05T12:46:34;9.85;;;1.45;;
64351;SDS011;50680;52.626;-8.668;2022-07-05T12:49:09;4.93;;;1.13;;
64351;SDS011;50680;52.626;-8.668;2022-07-05T12:51:38;5.03;;;1.30;;
64351;SDS011;50680;52.626;-8.668;2022-07-05T12:54:07;4.47;;;1.40;;
64351;SDS011;50680;52.626;-8.668;2022-07-05T12:56:53;4.68;;;1.60;;
64351;SDS011;50680;52.626;-8.668;2022-07-05T13:00:01;9.77;;;2.00;;
64351;SDS011;50680;52.626;-8.668;2022-07-05T13:02:41;7.30;;;1.83;;
64351;SDS011;50680;52.626;-8.668;2022-07-05T13:05:09;8.50;;;1.88;;
64351;SDS011;50680;52.626;-8.668;2022-07-05T13:07:49;7.53;;;1.77;;
64351;SDS011;50680;52.626;-8.668;2022-07-05T13:10:21;10.43;;;1.70;;
64351;SDS011;50680;52.626;-8.668;2022-07-05T13:12:54;3.28;;;1.25;;
64351;SDS011;50680;52.626;-8.668;2022-07-05T13:15:21;3.15;;;1.35;;
64351;SDS011;50680;52.626;-8.668;2022-07-05T13:17:48;8.27;;;2.28;;
64351;SDS011;50680;52.626;-8.668;2022-07-05T13:20:16;6.93;;;2.38;;
64351;SDS011;50680;52.626;-8.668;2022-07-05T13:22:47;8.00;;;1.83;;
64351;SDS011;50680;52.626;-8.668;2022-07-05T13:25:14;14.77;;;2.58;;
64351;SDS011;50680;52.626;-8.668;2022-07-05T13:27:41;15.68;;;2.95;;
64351;SDS011;50680;52.626;-8.668;2022-07-05T13:30:10;8.95;;;2.50;;
64351;SDS011;50680;52.626;-8.668;2022-07-05T13:32:37;10.75;;;2.95;;
64351;SDS011;50680;52.626;-8.668;2022-07-05T13:35:04;11.43;;;2.47;;
64351;SDS011;50680;52.626;-8.668;2022-07-05T13:37:32;10.75;;;2.92;;
64351;SDS011;50680;52.626;-8.668;2022-07-05T13:39:59;12.75;;;3.55;;
64351;SDS011;50680;52.626;-8.668;2022-07-05T13:42:26;14.32;;;3.22;;
64351;SDS011;50680;52.626;-8.668;2022-07-05T13:44:53;16.05;;;3.38;;
64351;SDS011;50680;52.626;-8.668;2022-07-05T13:47:20;18.20;;;3.38;;
64351;SDS011;50680;52.626;-8.668;2022-07-05T13:49:47;15.38;;;2.95;;
64351;SDS011;50680;52.626;-8.668;2022-07-05T13:52:13;16.30;;;3.13;;
64351;SDS011;50680;52.626;-8.668;2022-07-05T13:54:40;18.73;;;3.28;;
64351;SDS011;50680;52.626;-8.668;2022-07-05T13:57:10;17.58;;;2.70;;
64351;SDS011;50680;52.626;-8.668;2022-07-05T13:59:36;16.85;;;3.00;;
64351;SDS011;50680;52.626;-8.668;2022-07-05T14:02:04;18.50;;;2.95;;
64351;SDS011;50680;52.626;-8.668;2022-07-05T14:04:31;12.85;;;3.13;;
64351;SDS011;50680;52.626;-8.668;2022-07-05T14:07:01;16.17;;;3.35;;
64351;SDS011;50680;52.626;-8.668;2022-07-05T14:09:28;13.27;;;2.80;;
64351;SDS011;50680;52.626;-8.668;2022-07-05T14:11:55;21.50;;;3.13;;
64351;SDS011;50680;52.626;-8.668;2022-07-05T14:14:22;60.90;;;12.85;;
64351;SDS011;50680;52.626;-8.668;2022-07-05T14:16:49;26.05;;;5.30;;
64351;SDS011;50680;52.626;-8.668;2022-07-05T14:19:16;26.42;;;4.43;;
64351;SDS011;50680;52.626;-8.668;2022-07-05T14:21:43;58.78;;;7.88;;
64351;SDS011;50680;52.626;-8.668;2022-07-05T14:24:13;29.50;;;4.93;;
64351;SDS011;50680;52.626;-8.668;2022-07-05T14:26:40;22.40;;;3.15;;
64351;SDS011;50680;52.626;-8.668;2022-07-05T14:29:08;40.25;;;4.03;;
64351;SDS011;50680;52.626;-8.668;2022-07-05T14:31:36;16.52;;;4.03;;
64351;SDS011;50680;52.626;-8.668;2022-07-05T14:34:04;15.85;;;3.78;;
64351;SDS011;50680;52.626;-8.668;2022-07-05T14:36:31;15.80;;;3.15;;
64351;SDS011;50680;52.626;-8.668;2022-07-05T14:38:58;17.23;;;3.33;;
64351;SDS011;50680;52.626;-8.668;2022-07-05T14:41:27;13.88;;;2.97;;
64351;SDS011;50680;52.626;-8.668;2022-07-05T14:43:55;33.33;;;3.58;;
64351;SDS011;50680;52.626;-8.668;2022-07-05T14:46:22;20.88;;;3.22;;
64351;SDS011;50680;52.626;-8.668;2022-07-05T14:48:49;19.65;;;3.08;;
64351;SDS011;50680;52.626;-8.668;2022-07-05T14:51:16;9.05;;;2.60;;
64351;SDS011;50680;52.626;-8.668;2022-07-05T14:53:43;21.20;;;2.67;;
64351;SDS011;50680;52.626;-8.668;2022-07-05T14:56:13;23.20;;;2.92;;
64351;SDS011;50680;52.626;-8.668;2022-07-05T14:58:41;20.25;;;5.80;;
64351;SDS011;50680;52.626;-8.668;2022-07-05T15:01:08;43.40;;;17.30;;
64351;SDS011;50680;52.626;-8.668;2022-07-05T15:03:35;15.20;;;2.60;;
64351;SDS011;50680;52.626;-8.668;2022-07-05T15:06:02;19.20;;;2.50;;
64351;SDS011;50680;52.626;-8.668;2022-07-05T15:08:30;24.73;;;3.17;;
64351;SDS011;50680;52.626;-8.668;2022-07-05T15:10:57;18.80;;;2.72;;